sensor_id;sensor_type;location;lat;lon;timestamp;P1;durP1;ratioP1;P2;durP2;ratioP2
34783;SDS011;20998;51.388;7.032;2024-03-08T00:00:32;11.50;;;6.83;;
34783;SDS011;20998;51.388;7.032;2024-03-08T00:02:58;15.83;;;6.50;;
34783;SDS011;20998;51.388;7.032;2024-03-08T00:05:26;16.90;;;7.50;;
34783;SDS011;20998;51.388;7.032;2024-03-08T00:07:51;13.57;;;6.90;;
34783;SDS011;20998;51.388;7.032;2024-03-08T00:10:18;10.67;;;6.83;;
34783;SDS011;20998;51.388;7.032;2024-03-08T00:12:46;13.23;;;7.13;;
34783;SDS011;20998;51.388;7.032;2024-03-08T00:15:12;14.17;;;7.20;;
34783;SDS011;20998;51.388;7.032;2024-03-08T00:17:40;14.23;;;7.30;;
34783;SDS011;20998;51.388;7.032;2024-03-08T00:20:06;14.07;;;7.13;;
34783;SDS011;20998;51.388;7.032;2024-03-08T00:22:36;16.50;;;7.50;;
34783;SDS011;20998;51.388;7.032;2024-03-08T00:25:02;12.60;;;6.77;;
34783;SDS011;20998;51.388;7.032;2024-03-08T00:27:29;17.93;;;6.67;;
34783;SDS011;20998;51.388;7.032;2024-03-08T00:29:58;16.10;;;7.27;;
34783;SDS011;20998;51.388;7.032;2024-03-08T00:32:24;12.53;;;6.60;;
34783;SDS011;20998;51.388;7.032;2024-03-08T00:34:50;15.53;;;8.30;;
34783;SDS011;20998;51.388;7.032;2024-03-08T00:37:19;15.23;;;6.70;;
34783;SDS011;20998;51.388;7.032;2024-03-08T00:39:49;15.47;;;7.77;;
34783;SDS011;20998;51.388;7.032;2024-03-08T00:42:16;11.70;;;6.37;;
34783;SDS011;20998;51.388;7.032;2024-03-08T00:44:42;20.33;;;7.77;;
34783;SDS011;20998;51.388;7.032;2024-03-08T00:47:08;17.00;;;7.07;;
34783;SDS011;20998;51.388;7.032;2024-03-08T00:49:35;15.10;;;7.80;;
34783;SDS011;20998;51.388;7.032;2024-03-08T00:52:07;11.63;;;6.63;;
34783;SDS011;20998;51.388;7.032;2024-03-08T00:54:33;14.73;;;8.17;;
34783;SDS011;20998;51.388;7.032;2024-03-08T00:57:00;12.97;;;7.33;;
34783;SDS011;20998;51.388;7.032;2024-03-08T00:59:28;17.63;;;8.07;;
34783;SDS011;20998;51.388;7.032;2024-03-08T01:01:54;12.57;;;6.63;;
34783;SDS011;20998;51.388;7.032;2024-03-08T01:04:20;14.40;;;7.97;;
34783;SDS011;20998;51.388;7.032;2024-03-08T01:06:48;15.33;;;7.53;;
34783;SDS011;20998;51.388;7.032;2024-03-08T01:09:14;16.33;;;7.37;;
34783;SDS011;20998;51.388;7.032;2024-03-08T01:11:42;16.97;;;7.83;;
34783;SDS011;20998;51.388;7.032;2024-03-08T01:14:08;15.87;;;6.93;;
34783;SDS011;20998;51.388;7.032;2024-03-08T01:16:34;15.07;;;8.50;;
34783;SDS011;20998;51.388;7.032;2024-03-08T01:19:00;13.83;;;7.83;;
34783;SDS011;20998;51.388;7.032;2024-03-08T01:21:28;14.13;;;6.80;;
34783;SDS011;20998;51.388;7.032;2024-03-08T01:23:54;16.50;;;7.07;;
34783;SDS011;20998;51.388;7.032;2024-03-08T01:26:20;12.10;;;7.23;;
34783;SDS011;20998;51.388;7.032;2024-03-08T01:28:46;11.83;;;6.77;;
34783;SDS011;20998;51.388;7.032;2024-03-08T01:31:12;13.73;;;7.10;;
34783;SDS011;20998;51.388;7.032;2024-03-08T01:33:38;34.83;;;9.00;;
34783;SDS011;20998;51.388;7.032;2024-03-08T01:36:05;16.77;;;7.90;;
34783;SDS011;20998;51.388;7.032;2024-03-08T01:38:31;15.83;;;8.20;;
34783;SDS011;20998;51.388;7.032;2024-03-08T01:40:57;14.53;;;6.90;;
34783;SDS011;20998;51.388;7.032;2024-03-08T01:43:26;15.57;;;8.10;;
34783;SDS011;20998;51.388;7.032;2024-03-08T01:45:59;11.93;;;7.47;;
34783;SDS011;20998;51.388;7.032;2024-03-08T01:48:25;14.17;;;8.07;;
34783;SDS011;20998;51.388;7.032;2024-03-08T01:50:51;14.23;;;7.03;;
34783;SDS011;20998;51.388;7.032;2024-03-08T01:53:18;12.50;;;6.17;;
34783;SDS011;20998;51.388;7.032;2024-03-08T01:55:44;15.30;;;7.30;;
34783;SDS011;20998;51.388;7.032;2024-03-08T01:58:12;15.53;;;7.40;;
34783;SDS011;20998;51.388;7.032;2024-03-08T02:00:40;20.57;;;7.47;;
34783;SDS011;20998;51.388;7.032;2024-03-08T02:03:09;14.20;;;8.00;;
34783;SDS011;20998;51.388;7.032;2024-03-08T02:05:36;12.67;;;7.30;;
34783;SDS011;20998;51.388;7.032;2024-03-08T02:08:03;19.50;;;7.87;;
34783;SDS011;20998;51.388;7.032;2024-03-08T02:10:32;17.87;;;7.27;;
34783;SDS011;20998;51.388;7.032;2024-03-08T02:12:58;21.90;;;7.70;;
34783;SDS011;20998;51.388;7.032;2024-03-08T02:15:24;17.67;;;8.40;;
34783;SDS011;20998;51.388;7.032;2024-03-08T02:17:51;11.60;;;7.27;;
34783;SDS011;20998;51.388;7.032;2024-03-08T02:20:18;17.13;;;7.90;;
34783;SDS011;20998;51.388;7.032;2024-03-08T02:22:45;14.37;;;7.30;;
34783;SDS011;20998;51.388;7.032;2024-03-08T02:25:11;17.77;;;8.87;;
34783;SDS011;20998;51.388;7.032;2024-03-08T02:27:37;13.10;;;7.53;;
34783;SDS011;20998;51.388;7.032;2024-03-08T02:30:03;16.13;;;7.53;;
34783;SDS011;20998;51.388;7.032;2024-03-08T02:32:30;14.07;;;8.07;;
34783;SDS011;20998;51.388;7.032;2024-03-08T02:34:57;18.50;;;8.63;;
34783;SDS011;20998;51.388;7.032;2024-03-08T02:37:27;11.73;;;7.27;;
34783;SDS011;20998;51.388;7.032;2024-03-08T02:39:53;13.87;;;7.63;;
34783;SDS011;20998;51.388;7.032;2024-03-08T02:42:19;15.20;;;7.27;;
34783;SDS011;20998;51.388;7.032;2024-03-08T02:44:45;17.10;;;7.80;;
34783;SDS011;20998;51.388;7.032;2024-03-08T02:47:11;17.27;;;7.43;;
34783;SDS011;20998;51.388;7.032;2024-03-08T02:49:37;15.00;;;7.10;;
34783;SDS011;20998;51.388;7.032;2024-03-08T02:52:03;15.83;;;8.17;;
34783;SDS011;20998;51.388;7.032;2024-03-08T02:54:30;16.13;;;8.30;;
34783;SDS011;20998;51.388;7.032;2024-03-08T02:56:56;14.80;;;8.20;;
34783;SDS011;20998;51.388;7.032;2024-03-08T02:59:22;17.03;;;8.93;;
34783;SDS011;20998;51.388;7.032;2024-03-08T03:01:48;17.00;;;8.13;;
34783;SDS011;20998;51.388;7.032;2024-03-08T03:04:14;14.10;;;7.30;;
34783;SDS011;20998;51.388;7.032;2024-03-08T03:06:40;17.93;;;7.87;;
34783;SDS011;20998;51.388;7.032;2024-03-08T03:09:06;17.53;;;7.40;;
34783;SDS011;20998;51.388;7.032;2024-03-08T03:11:32;16.90;;;8.17;;
34783;SDS011;20998;51.388;7.032;2024-03-08T03:13:58;13.73;;;7.23;;
34783;SDS011;20998;51.388;7.032;2024-03-08T03:16:24;14.33;;;8.07;;
34783;SDS011;20998;51.388;7.032;2024-03-08T03:18:50;17.47;;;8.03;;
34783;SDS011;20998;51.388;7.032;2024-03-08T03:21:16;13.67;;;6.90;;
34783;SDS011;20998;51.388;7.032;2024-03-08T03:23:42;19.07;;;8.20;;
34783;SDS011;20998;51.388;7.032;2024-03-08T03:26:08;18.33;;;7.77;;
34783;SDS011;20998;51.388;7.032;2024-03-08T03:28:38;20.73;;;9.90;;
34783;SDS011;20998;51.388;7.032;2024-03-08T03:31:06;18.63;;;8.13;;
34783;SDS011;20998;51.388;7.032;2024-03-08T03:33:32;15.17;;;7.93;;
34783;SDS011;20998;51.388;7.032;2024-03-08T03:35:59;19.43;;;8.47;;
34783;SDS011;20998;51.388;7.032;2024-03-08T03:38:26;11.17;;;7.33;;
34783;SDS011;20998;51.388;7.032;2024-03-08T03:40:53;16.63;;;7.77;;
34783;SDS011;20998;51.388;7.032;2024-03-08T03:43:22;17.90;;;8.57;;
34783;SDS011;20998;51.388;7.032;2024-03-08T03:45:48;15.80;;;8.37;;
34783;SDS011;20998;51.388;7.032;2024-03-08T03:48:14;16.87;;;7.63;;
34783;SDS011;20998;51.388;7.032;2024-03-08T03:50:40;15.33;;;7.70;;
34783;SDS011;20998;51.388;7.032;2024-03-08T03:53:06;16.73;;;8.40;;
34783;SDS011;20998;51.388;7.032;2024-03-08T03:55:32;21.27;;;8.87;;
34783;SDS011;20998;51.388;7.032;2024-03-08T03:57:58;16.53;;;8.73;;
34783;SDS011;20998;51.388;7.032;2024-03-08T04:00:26;17.97;;;7.73;;
34783;SDS011;20998;51.388;7.032;2024-03-08T04:02:52;18.17;;;8.37;;
34783;SDS011;20998;51.388;7.032;2024-03-08T04:05:18;17.43;;;8.60;;
34783;SDS011;20998;51.388;7.032;2024-03-08T04:07:44;15.97;;;8.37;;
34783;SDS011;20998;51.388;7.032;2024-03-08T04:10:11;16.33;;;7.93;;
34783;SDS011;20998;51.388;7.032;2024-03-08T04:12:37;16.07;;;7.03;;
34783;SDS011;20998;51.388;7.032;2024-03-08T04:15:03;16.70;;;8.80;;
34783;SDS011;20998;51.388;7.032;2024-03-08T04:17:32;19.90;;;7.87;;
34783;SDS011;20998;51.388;7.032;2024-03-08T04:19:58;13.23;;;7.60;;
34783;SDS011;20998;51.388;7.032;2024-03-08T04:22:24;15.67;;;7.60;;
34783;SDS011;20998;51.388;7.032;2024-03-08T04:24:50;14.03;;;8.20;;
34783;SDS011;20998;51.388;7.032;2024-03-08T04:27:16;15.50;;;8.30;;
34783;SDS011;20998;51.388;7.032;2024-03-08T04:29:42;19.23;;;7.63;;
34783;SDS011;20998;51.388;7.032;2024-03-08T04:32:08;22.73;;;9.10;;
34783;SDS011;20998;51.388;7.032;2024-03-08T04:34:34;18.03;;;8.27;;
34783;SDS011;20998;51.388;7.032;2024-03-08T04:37:01;20.13;;;8.57;;
34783;SDS011;20998;51.388;7.032;2024-03-08T04:39:27;16.77;;;8.87;;
34783;SDS011;20998;51.388;7.032;2024-03-08T04:41:54;18.87;;;9.23;;
34783;SDS011;20998;51.388;7.032;2024-03-08T04:44:22;24.00;;;8.33;;
34783;SDS011;20998;51.388;7.032;2024-03-08T04:46:49;17.80;;;7.50;;
34783;SDS011;20998;51.388;7.032;2024-03-08T04:49:15;15.27;;;7.87;;
34783;SDS011;20998;51.388;7.032;2024-03-08T04:51:41;18.87;;;8.70;;
34783;SDS011;20998;51.388;7.032;2024-03-08T04:54:07;15.73;;;8.67;;
34783;SDS011;20998;51.388;7.032;2024-03-08T04:56:34;14.37;;;7.57;;
34783;SDS011;20998;51.388;7.032;2024-03-08T04:59:01;17.43;;;8.53;;
34783;SDS011;20998;51.388;7.032;2024-03-08T05:01:27;15.40;;;7.83;;
34783;SDS011;20998;51.388;7.032;2024-03-08T05:03:53;17.23;;;8.20;;
34783;SDS011;20998;51.388;7.032;2024-03-08T05:06:20;12.87;;;7.57;;
34783;SDS011;20998;51.388;7.032;2024-03-08T05:08:46;14.80;;;7.93;;
34783;SDS011;20998;51.388;7.032;2024-03-08T05:11:12;21.20;;;8.70;;
34783;SDS011;20998;51.388;7.032;2024-03-08T05:13:39;22.13;;;9.57;;
34783;SDS011;20998;51.388;7.032;2024-03-08T05:16:05;16.77;;;7.83;;
34783;SDS011;20998;51.388;7.032;2024-03-08T05:18:32;13.57;;;7.33;;
34783;SDS011;20998;51.388;7.032;2024-03-08T05:20:58;19.57;;;9.70;;
34783;SDS011;20998;51.388;7.032;2024-03-08T05:23:24;15.60;;;7.83;;
34783;SDS011;20998;51.388;7.032;2024-03-08T05:25:50;15.73;;;7.30;;
34783;SDS011;20998;51.388;7.032;2024-03-08T05:28:16;18.10;;;8.33;;
34783;SDS011;20998;51.388;7.032;2024-03-08T05:30:42;18.67;;;8.37;;
34783;SDS011;20998;51.388;7.032;2024-03-08T05:33:08;21.63;;;8.43;;
34783;SDS011;20998;51.388;7.032;2024-03-08T05:35:38;15.97;;;8.13;;
34783;SDS011;20998;51.388;7.032;2024-03-08T05:38:03;14.53;;;7.00;;
34783;SDS011;20998;51.388;7.032;2024-03-08T05:40:29;16.63;;;7.47;;
34783;SDS011;20998;51.388;7.032;2024-03-08T05:42:57;19.47;;;9.20;;
34783;SDS011;20998;51.388;7.032;2024-03-08T05:45:23;14.27;;;7.07;;
34783;SDS011;20998;51.388;7.032;2024-03-08T05:47:50;17.40;;;8.17;;
34783;SDS011;20998;51.388;7.032;2024-03-08T05:50:16;12.53;;;7.20;;
34783;SDS011;20998;51.388;7.032;2024-03-08T05:52:42;13.73;;;8.07;;
34783;SDS011;20998;51.388;7.032;2024-03-08T05:55:08;17.67;;;7.80;;
34783;SDS011;20998;51.388;7.032;2024-03-08T05:57:34;13.97;;;7.13;;
34783;SDS011;20998;51.388;7.032;2024-03-08T06:00:03;19.20;;;9.07;;
34783;SDS011;20998;51.388;7.032;2024-03-08T06:02:29;19.70;;;8.03;;
34783;SDS011;20998;51.388;7.032;2024-03-08T06:04:55;18.40;;;8.83;;
34783;SDS011;20998;51.388;7.032;2024-03-08T06:07:21;21.47;;;8.83;;
34783;SDS011;20998;51.388;7.032;2024-03-08T06:09:47;17.70;;;8.87;;
34783;SDS011;20998;51.388;7.032;2024-03-08T06:12:14;16.00;;;8.03;;
34783;SDS011;20998;51.388;7.032;2024-03-08T06:14:44;16.90;;;8.73;;
34783;SDS011;20998;51.388;7.032;2024-03-08T06:17:10;19.17;;;7.80;;
34783;SDS011;20998;51.388;7.032;2024-03-08T06:19:36;26.70;;;8.20;;
34783;SDS011;20998;51.388;7.032;2024-03-08T06:22:02;18.30;;;8.33;;
34783;SDS011;20998;51.388;7.032;2024-03-08T06:24:31;16.23;;;8.00;;
34783;SDS011;20998;51.388;7.032;2024-03-08T06:26:57;16.83;;;9.30;;
34783;SDS011;20998;51.388;7.032;2024-03-08T06:29:23;19.83;;;7.87;;
34783;SDS011;20998;51.388;7.032;2024-03-08T06:31:49;17.80;;;8.90;;
34783;SDS011;20998;51.388;7.032;2024-03-08T06:34:15;18.80;;;9.13;;
34783;SDS011;20998;51.388;7.032;2024-03-08T06:36:43;18.60;;;7.20;;
34783;SDS011;20998;51.388;7.032;2024-03-08T06:39:09;14.57;;;7.37;;
34783;SDS011;20998;51.388;7.032;2024-03-08T06:41:35;16.83;;;8.83;;
34783;SDS011;20998;51.388;7.032;2024-03-08T06:44:01;15.47;;;7.90;;
34783;SDS011;20998;51.388;7.032;2024-03-08T06:46:27;17.97;;;8.13;;
34783;SDS011;20998;51.388;7.032;2024-03-08T06:48:53;17.27;;;8.10;;
34783;SDS011;20998;51.388;7.032;2024-03-08T06:51:19;21.37;;;7.83;;
34783;SDS011;20998;51.388;7.032;2024-03-08T06:53:45;18.23;;;8.50;;
34783;SDS011;20998;51.388;7.032;2024-03-08T06:56:11;16.17;;;8.80;;
34783;SDS011;20998;51.388;7.032;2024-03-08T06:58:37;14.17;;;6.67;;
34783;SDS011;20998;51.388;7.032;2024-03-08T07:01:03;19.63;;;8.53;;
34783;SDS011;20998;51.388;7.032;2024-03-08T07:03:32;15.63;;;7.73;;
34783;SDS011;20998;51.388;7.032;2024-03-08T07:05:58;18.00;;;7.83;;
34783;SDS011;20998;51.388;7.032;2024-03-08T07:08:24;15.87;;;8.43;;
34783;SDS011;20998;51.388;7.032;2024-03-08T07:10:52;16.00;;;8.00;;
34783;SDS011;20998;51.388;7.032;2024-03-08T07:13:18;15.03;;;8.10;;
34783;SDS011;20998;51.388;7.032;2024-03-08T07:15:44;15.57;;;8.47;;
34783;SDS011;20998;51.388;7.032;2024-03-08T07:18:10;16.40;;;7.47;;
34783;SDS011;20998;51.388;7.032;2024-03-08T07:20:40;22.60;;;8.63;;
34783;SDS011;20998;51.388;7.032;2024-03-08T07:23:06;22.97;;;9.20;;
34783;SDS011;20998;51.388;7.032;2024-03-08T07:25:33;20.93;;;9.90;;
34783;SDS011;20998;51.388;7.032;2024-03-08T07:28:00;15.37;;;7.50;;
34783;SDS011;20998;51.388;7.032;2024-03-08T07:30:26;20.73;;;8.63;;
34783;SDS011;20998;51.388;7.032;2024-03-08T07:33:11;17.83;;;8.57;;
34783;SDS011;20998;51.388;7.032;2024-03-08T07:35:37;18.70;;;9.27;;
34783;SDS011;20998;51.388;7.032;2024-03-08T07:38:04;17.00;;;8.67;;
34783;SDS011;20998;51.388;7.032;2024-03-08T07:40:30;15.60;;;9.50;;
34783;SDS011;20998;51.388;7.032;2024-03-08T07:42:56;17.53;;;8.20;;
34783;SDS011;20998;51.388;7.032;2024-03-08T07:45:23;19.47;;;9.37;;
34783;SDS011;20998;51.388;7.032;2024-03-08T07:47:49;17.63;;;8.20;;
34783;SDS011;20998;51.388;7.032;2024-03-08T07:50:15;10.70;;;7.13;;
34783;SDS011;20998;51.388;7.032;2024-03-08T07:52:42;21.00;;;8.27;;
34783;SDS011;20998;51.388;7.032;2024-03-08T07:55:08;15.50;;;7.60;;
34783;SDS011;20998;51.388;7.032;2024-03-08T07:57:35;16.33;;;8.07;;
34783;SDS011;20998;51.388;7.032;2024-03-08T08:00:03;13.73;;;8.33;;
34783;SDS011;20998;51.388;7.032;2024-03-08T08:02:35;20.93;;;8.50;;
34783;SDS011;20998;51.388;7.032;2024-03-08T08:05:02;15.57;;;7.93;;
34783;SDS011;20998;51.388;7.032;2024-03-08T08:07:28;14.10;;;6.87;;
34783;SDS011;20998;51.388;7.032;2024-03-08T08:09:54;18.13;;;8.47;;
34783;SDS011;20998;51.388;7.032;2024-03-08T08:12:20;17.40;;;9.27;;
34783;SDS011;20998;51.388;7.032;2024-03-08T08:14:46;14.63;;;7.73;;
34783;SDS011;20998;51.388;7.032;2024-03-08T08:17:12;15.60;;;7.10;;
34783;SDS011;20998;51.388;7.032;2024-03-08T08:19:40;26.17;;;9.40;;
34783;SDS011;20998;51.388;7.032;2024-03-08T08:22:06;24.50;;;7.47;;
34783;SDS011;20998;51.388;7.032;2024-03-08T08:24:33;15.47;;;7.50;;
34783;SDS011;20998;51.388;7.032;2024-03-08T08:27:01;11.43;;;7.13;;
34783;SDS011;20998;51.388;7.032;2024-03-08T08:29:27;17.03;;;7.53;;
34783;SDS011;20998;51.388;7.032;2024-03-08T08:31:53;15.27;;;6.73;;
34783;SDS011;20998;51.388;7.032;2024-03-08T08:34:19;18.53;;;8.40;;
34783;SDS011;20998;51.388;7.032;2024-03-08T08:36:48;18.80;;;7.67;;
34783;SDS011;20998;51.388;7.032;2024-03-08T08:39:14;12.40;;;6.80;;
34783;SDS011;20998;51.388;7.032;2024-03-08T08:41:42;11.70;;;7.27;;
34783;SDS011;20998;51.388;7.032;2024-03-08T08:44:08;13.97;;;6.57;;
34783;SDS011;20998;51.388;7.032;2024-03-08T08:46:35;13.90;;;6.50;;
34783;SDS011;20998;51.388;7.032;2024-03-08T08:49:02;14.87;;;7.37;;
34783;SDS011;20998;51.388;7.032;2024-03-08T08:51:29;12.30;;;6.33;;
34783;SDS011;20998;51.388;7.032;2024-03-08T08:53:55;17.93;;;7.77;;
34783;SDS011;20998;51.388;7.032;2024-03-08T08:56:21;17.03;;;8.10;;
34783;SDS011;20998;51.388;7.032;2024-03-08T08:58:47;11.43;;;7.13;;
34783;SDS011;20998;51.388;7.032;2024-03-08T09:01:14;26.33;;;7.77;;
34783;SDS011;20998;51.388;7.032;2024-03-08T09:03:40;13.20;;;6.90;;
34783;SDS011;20998;51.388;7.032;2024-03-08T09:06:06;16.73;;;7.47;;
34783;SDS011;20998;51.388;7.032;2024-03-08T09:08:35;16.77;;;7.87;;
34783;SDS011;20998;51.388;7.032;2024-03-08T09:11:03;14.93;;;7.73;;
34783;SDS011;20998;51.388;7.032;2024-03-08T09:13:29;12.37;;;6.90;;
34783;SDS011;20998;51.388;7.032;2024-03-08T09:15:55;12.10;;;6.20;;
34783;SDS011;20998;51.388;7.032;2024-03-08T09:18:21;13.57;;;7.33;;
34783;SDS011;20998;51.388;7.032;2024-03-08T09:20:49;15.47;;;7.70;;
34783;SDS011;20998;51.388;7.032;2024-03-08T09:23:16;10.47;;;6.97;;
34783;SDS011;20998;51.388;7.032;2024-03-08T09:25:42;15.83;;;7.80;;
34783;SDS011;20998;51.388;7.032;2024-03-08T09:28:08;13.90;;;6.73;;
34783;SDS011;20998;51.388;7.032;2024-03-08T09:30:37;13.63;;;6.90;;
34783;SDS011;20998;51.388;7.032;2024-03-08T09:33:03;19.87;;;7.87;;
34783;SDS011;20998;51.388;7.032;2024-03-08T09:35:29;14.90;;;7.70;;
34783;SDS011;20998;51.388;7.032;2024-03-08T09:37:55;15.63;;;7.83;;
34783;SDS011;20998;51.388;7.032;2024-03-08T09:40:21;19.90;;;8.27;;
34783;SDS011;20998;51.388;7.032;2024-03-08T09:42:49;12.63;;;7.37;;
34783;SDS011;20998;51.388;7.032;2024-03-08T09:45:15;15.13;;;8.00;;
34783;SDS011;20998;51.388;7.032;2024-03-08T09:47:42;13.37;;;7.13;;
34783;SDS011;20998;51.388;7.032;2024-03-08T09:50:08;18.57;;;8.57;;
34783;SDS011;20998;51.388;7.032;2024-03-08T09:52:38;16.30;;;8.87;;
34783;SDS011;20998;51.388;7.032;2024-03-08T09:55:05;18.03;;;7.47;;
34783;SDS011;20998;51.388;7.032;2024-03-08T09:57:32;19.17;;;7.53;;
34783;SDS011;20998;51.388;7.032;2024-03-08T09:59:59;15.77;;;8.30;;
34783;SDS011;20998;51.388;7.032;2024-03-08T10:02:25;16.87;;;8.23;;
34783;SDS011;20998;51.388;7.032;2024-03-08T10:04:51;15.27;;;7.97;;
34783;SDS011;20998;51.388;7.032;2024-03-08T10:07:18;16.70;;;8.33;;
34783;SDS011;20998;51.388;7.032;2024-03-08T10:09:44;14.83;;;8.00;;
34783;SDS011;20998;51.388;7.032;2024-03-08T10:12:15;20.33;;;9.90;;
34783;SDS011;20998;51.388;7.032;2024-03-08T10:14:42;16.07;;;7.83;;
34783;SDS011;20998;51.388;7.032;2024-03-08T10:17:08;13.57;;;7.87;;
34783;SDS011;20998;51.388;7.032;2024-03-08T10:19:34;17.10;;;8.47;;
34783;SDS011;20998;51.388;7.032;2024-03-08T10:22:00;14.97;;;8.07;;
34783;SDS011;20998;51.388;7.032;2024-03-08T10:24:26;14.83;;;7.87;;
34783;SDS011;20998;51.388;7.032;2024-03-08T10:26:53;16.63;;;8.40;;
34783;SDS011;20998;51.388;7.032;2024-03-08T10:29:19;16.33;;;8.73;;
34783;SDS011;20998;51.388;7.032;2024-03-08T10:31:45;15.40;;;8.10;;
34783;SDS011;20998;51.388;7.032;2024-03-08T10:34:11;15.53;;;8.07;;
34783;SDS011;20998;51.388;7.032;2024-03-08T10:36:37;16.90;;;7.97;;
34783;SDS011;20998;51.388;7.032;2024-03-08T10:39:27;17.63;;;9.20;;
34783;SDS011;20998;51.388;7.032;2024-03-08T10:41:59;15.77;;;8.10;;
34783;SDS011;20998;51.388;7.032;2024-03-08T10:49:31;12.87;;;8.03;;
34783;SDS011;20998;51.388;7.032;2024-03-08T10:52:04;13.73;;;8.10;;
34783;SDS011;20998;51.388;7.032;2024-03-08T10:54:33;16.40;;;8.63;;
34783;SDS011;20998;51.388;7.032;2024-03-08T10:56:59;17.60;;;9.13;;
34783;SDS011;20998;51.388;7.032;2024-03-08T10:59:29;19.83;;;9.63;;
34783;SDS011;20998;51.388;7.032;2024-03-08T11:01:55;14.70;;;7.83;;
34783;SDS011;20998;51.388;7.032;2024-03-08T11:04:21;13.43;;;8.87;;
34783;SDS011;20998;51.388;7.032;2024-03-08T11:06:49;15.90;;;7.27;;
34783;SDS011;20998;51.388;7.032;2024-03-08T11:09:30;16.57;;;8.80;;
34783;SDS011;20998;51.388;7.032;2024-03-08T11:12:19;14.33;;;7.33;;
34783;SDS011;20998;51.388;7.032;2024-03-08T11:14:50;11.57;;;6.33;;
34783;SDS011;20998;51.388;7.032;2024-03-08T11:20:18;10.60;;;6.07;;
34783;SDS011;20998;51.388;7.032;2024-03-08T11:22:49;12.63;;;6.67;;
34783;SDS011;20998;51.388;7.032;2024-03-08T11:25:32;15.53;;;7.40;;
34783;SDS011;20998;51.388;7.032;2024-03-08T11:28:12;12.17;;;7.13;;
34783;SDS011;20998;51.388;7.032;2024-03-08T11:33:24;10.57;;;5.80;;
34783;SDS011;20998;51.388;7.032;2024-03-08T11:35:57;14.07;;;6.37;;
34783;SDS011;20998;51.388;7.032;2024-03-08T11:38:40;12.97;;;6.47;;
34783;SDS011;20998;51.388;7.032;2024-03-08T11:41:07;12.13;;;6.23;;
34783;SDS011;20998;51.388;7.032;2024-03-08T11:43:33;11.40;;;6.27;;
34783;SDS011;20998;51.388;7.032;2024-03-08T11:46:10;12.37;;;6.37;;
34783;SDS011;20998;51.388;7.032;2024-03-08T11:48:40;8.77;;;5.33;;
34783;SDS011;20998;51.388;7.032;2024-03-08T11:51:12;11.43;;;6.10;;
34783;SDS011;20998;51.388;7.032;2024-03-08T11:53:38;9.73;;;5.73;;
34783;SDS011;20998;51.388;7.032;2024-03-08T11:56:14;10.73;;;6.03;;
34783;SDS011;20998;51.388;7.032;2024-03-08T11:58:40;10.23;;;5.47;;
34783;SDS011;20998;51.388;7.032;2024-03-08T12:01:07;11.00;;;5.83;;
34783;SDS011;20998;51.388;7.032;2024-03-08T12:03:37;7.77;;;4.73;;
34783;SDS011;20998;51.388;7.032;2024-03-08T12:06:03;10.57;;;5.57;;
34783;SDS011;20998;51.388;7.032;2024-03-08T12:08:32;7.00;;;4.40;;
34783;SDS011;20998;51.388;7.032;2024-03-08T12:10:58;11.10;;;5.97;;
34783;SDS011;20998;51.388;7.032;2024-03-08T12:13:27;8.03;;;5.17;;
34783;SDS011;20998;51.388;7.032;2024-03-08T12:15:56;9.30;;;4.83;;
34783;SDS011;20998;51.388;7.032;2024-03-08T12:18:38;14.20;;;5.83;;
34783;SDS011;20998;51.388;7.032;2024-03-08T12:21:11;10.77;;;5.03;;
34783;SDS011;20998;51.388;7.032;2024-03-08T12:23:39;7.80;;;4.30;;
34783;SDS011;20998;51.388;7.032;2024-03-08T12:31:52;8.90;;;5.33;;
34783;SDS011;20998;51.388;7.032;2024-03-08T12:34:23;7.90;;;5.23;;
34783;SDS011;20998;51.388;7.032;2024-03-08T12:36:49;8.63;;;5.10;;
34783;SDS011;20998;51.388;7.032;2024-03-08T12:39:19;10.23;;;5.57;;
34783;SDS011;20998;51.388;7.032;2024-03-08T12:41:52;7.97;;;4.73;;
34783;SDS011;20998;51.388;7.032;2024-03-08T12:44:18;7.83;;;4.20;;
34783;SDS011;20998;51.388;7.032;2024-03-08T12:46:46;10.23;;;5.10;;
34783;SDS011;20998;51.388;7.032;2024-03-08T12:49:13;7.13;;;4.70;;
34783;SDS011;20998;51.388;7.032;2024-03-08T12:51:42;10.20;;;4.83;;
34783;SDS011;20998;51.388;7.032;2024-03-08T12:54:08;7.23;;;4.20;;
34783;SDS011;20998;51.388;7.032;2024-03-08T12:56:34;8.97;;;4.67;;
34783;SDS011;20998;51.388;7.032;2024-03-08T12:59:02;6.57;;;4.00;;
34783;SDS011;20998;51.388;7.032;2024-03-08T13:01:29;9.80;;;4.77;;
34783;SDS011;20998;51.388;7.032;2024-03-08T13:03:57;9.93;;;4.77;;
34783;SDS011;20998;51.388;7.032;2024-03-08T13:06:31;6.93;;;3.80;;
34783;SDS011;20998;51.388;7.032;2024-03-08T13:08:57;6.60;;;4.13;;
34783;SDS011;20998;51.388;7.032;2024-03-08T13:11:24;6.97;;;3.93;;
34783;SDS011;20998;51.388;7.032;2024-03-08T13:13:53;9.53;;;4.37;;
34783;SDS011;20998;51.388;7.032;2024-03-08T13:16:18;7.90;;;4.70;;
34783;SDS011;20998;51.388;7.032;2024-03-08T13:18:45;8.43;;;4.30;;
34783;SDS011;20998;51.388;7.032;2024-03-08T13:21:13;10.90;;;3.90;;
34783;SDS011;20998;51.388;7.032;2024-03-08T13:23:40;5.83;;;3.87;;
34783;SDS011;20998;51.388;7.032;2024-03-08T13:26:10;6.80;;;4.10;;
34783;SDS011;20998;51.388;7.032;2024-03-08T13:28:40;5.67;;;3.60;;
34783;SDS011;20998;51.388;7.032;2024-03-08T13:31:06;6.30;;;3.93;;
34783;SDS011;20998;51.388;7.032;2024-03-08T13:33:35;6.23;;;3.90;;
34783;SDS011;20998;51.388;7.032;2024-03-08T13:36:02;6.50;;;3.83;;
34783;SDS011;20998;51.388;7.032;2024-03-08T13:38:31;8.93;;;4.03;;
34783;SDS011;20998;51.388;7.032;2024-03-08T13:40:58;7.93;;;4.70;;
34783;SDS011;20998;51.388;7.032;2024-03-08T13:43:23;9.73;;;5.23;;
34783;SDS011;20998;51.388;7.032;2024-03-08T13:45:49;8.33;;;4.30;;
34783;SDS011;20998;51.388;7.032;2024-03-08T13:48:17;7.60;;;4.23;;
34783;SDS011;20998;51.388;7.032;2024-03-08T13:50:43;9.80;;;4.53;;
34783;SDS011;20998;51.388;7.032;2024-03-08T13:53:09;7.87;;;4.30;;
34783;SDS011;20998;51.388;7.032;2024-03-08T13:55:35;6.50;;;3.90;;
34783;SDS011;20998;51.388;7.032;2024-03-08T13:58:01;7.83;;;4.93;;
34783;SDS011;20998;51.388;7.032;2024-03-08T14:00:27;9.00;;;4.33;;
34783;SDS011;20998;51.388;7.032;2024-03-08T14:02:58;6.23;;;3.90;;
34783;SDS011;20998;51.388;7.032;2024-03-08T14:05:24;5.97;;;3.67;;
34783;SDS011;20998;51.388;7.032;2024-03-08T14:07:50;12.07;;;5.77;;
34783;SDS011;20998;51.388;7.032;2024-03-08T14:10:19;9.10;;;4.40;;
34783;SDS011;20998;51.388;7.032;2024-03-08T14:12:47;6.40;;;3.87;;
34783;SDS011;20998;51.388;7.032;2024-03-08T14:15:15;7.57;;;4.37;;
34783;SDS011;20998;51.388;7.032;2024-03-08T14:17:41;7.43;;;4.23;;
34783;SDS011;20998;51.388;7.032;2024-03-08T14:20:08;9.57;;;4.17;;
34783;SDS011;20998;51.388;7.032;2024-03-08T14:22:34;9.73;;;4.80;;
34783;SDS011;20998;51.388;7.032;2024-03-08T14:25:00;7.90;;;4.60;;
34783;SDS011;20998;51.388;7.032;2024-03-08T14:27:27;12.53;;;4.70;;
34783;SDS011;20998;51.388;7.032;2024-03-08T14:29:53;13.37;;;4.60;;
34783;SDS011;20998;51.388;7.032;2024-03-08T14:32:20;9.47;;;4.37;;
34783;SDS011;20998;51.388;7.032;2024-03-08T14:34:47;8.10;;;4.80;;
34783;SDS011;20998;51.388;7.032;2024-03-08T14:37:14;9.97;;;5.30;;
34783;SDS011;20998;51.388;7.032;2024-03-08T14:39:40;10.50;;;5.17;;
34783;SDS011;20998;51.388;7.032;2024-03-08T14:42:06;9.30;;;5.13;;
34783;SDS011;20998;51.388;7.032;2024-03-08T14:44:33;7.53;;;4.47;;
34783;SDS011;20998;51.388;7.032;2024-03-08T14:47:00;9.17;;;5.20;;
34783;SDS011;20998;51.388;7.032;2024-03-08T14:49:26;7.13;;;4.43;;
34783;SDS011;20998;51.388;7.032;2024-03-08T14:51:54;9.23;;;4.87;;